Time;durP1;ratioP1;P1;durP2;ratioP2;P2;SDS_P1;SDS_P2;PMS_P1;PMS_P2;Temp;Humidity;BMP_temperature;BMP_pressure;BME280_temperature;BME280_humidity;BME280_pressure;Samples;Min_cycle;Max_cycle;Signal;HPM_P1;HPM_P2
2021/05/31 00:00:44;;;;;;;27.60;15.15;;;;;;;10.89;75.11;102270.94;5017812;28;20070;-73
2021/05/31 00:03:10;;;;;;;28.20;15.23;;;;;;;10.87;74.97;102272.50;5034970;28;20021;-73
2021/05/31 00:05:35;;;;;;;28.83;16.10;;;;;;;10.86;75.19;102266.47;5001686;28;20037;-73
2021/05/31 00:08:01;;;;;;;33.70;16.63;;;;;;;10.86;75.39;102265.56;5014137;28;20034;-73
2021/05/31 00:10:26;;;;;;;31.92;16.77;;;;;;;10.69;75.73;102257.47;5014009;28;20033;-73
2021/05/31 00:12:53;;;;;;;37.38;17.42;;;;;;;10.75;75.40;102257.91;5014943;28;20036;-72
2021/05/31 00:15:19;;;;;;;31.77;17.42;;;;;;;10.59;76.07;102255.00;5015746;28;20033;-73
2021/05/31 00:17:44;;;;;;;30.85;16.65;;;;;;;10.51;76.04;102247.59;5014201;28;20460;-73
2021/05/31 00:20:11;;;;;;;35.60;17.40;;;;;;;10.47;76.63;102250.72;5014501;28;20041;-73
2021/05/31 00:22:37;;;;;;;32.53;18.02;;;;;;;10.31;76.88;102245.16;5014234;28;20053;-73
2021/05/31 00:25:04;;;;;;;35.42;18.42;;;;;;;10.32;76.83;102239.22;5014052;28;20037;-72
2021/05/31 00:27:30;;;;;;;32.03;16.73;;;;;;;10.21;76.95;102240.97;5014015;28;20076;-73
2021/05/31 00:29:56;;;;;;;32.45;16.70;;;;;;;10.18;76.89;102233.91;5015282;28;20026;-74
2021/05/31 00:32:21;;;;;;;27.60;15.93;;;;;;;10.16;77.07;102243.19;5013906;28;20376;-72
2021/05/31 00:34:47;;;;;;;38.45;17.77;;;;;;;10.14;76.81;102238.69;5015122;28;20329;-73
2021/05/31 00:37:13;;;;;;;32.90;17.98;;;;;;;10.06;77.40;102245.81;5014174;28;20022;-73
2021/05/31 00:39:39;;;;;;;34.97;17.38;;;;;;;10.06;76.70;102240.66;5013799;28;20125;-73
2021/05/31 00:42:04;;;;;;;38.75;18.35;;;;;;;9.79;78.13;102245.47;5014838;28;20069;-73
2021/05/31 00:44:30;;;;;;;32.92;16.85;;;;;;;9.99;77.63;102243.56;5002248;28;20084;-73
2021/05/31 00:46:55;;;;;;;30.60;16.33;;;;;;;9.85;78.15;102240.81;4994429;28;20022;-73
2021/05/31 00:49:25;;;;;;;31.27;17.63;;;;;;;9.98;77.41;102241.75;5009720;28;20021;-73
2021/05/31 00:51:51;;;;;;;36.60;16.77;;;;;;;9.96;77.08;102248.47;5013821;28;20037;-72
2021/05/31 00:54:18;;;;;;;33.22;16.73;;;;;;;9.94;77.20;102251.81;5015293;28;20034;-72
2021/05/31 00:56:45;;;;;;;35.83;17.90;;;;;;;10.03;76.84;102250.72;5015016;28;20068;-72
2021/05/31 00:59:11;;;;;;;32.50;17.42;;;;;;;10.02;76.56;102243.78;5014977;28;20025;-72
2021/05/31 01:01:37;;;;;;;29.15;16.77;;;;;;;10.02;76.69;102243.78;5013539;28;20130;-72
2021/05/31 01:04:04;;;;;;;31.15;16.95;;;;;;;9.98;77.04;102241.75;5014569;28;20495;-72
2021/05/31 01:06:36;;;;;;;28.83;16.30;;;;;;;9.98;76.99;102241.75;5013493;28;20026;-73
2021/05/31 01:09:07;;;;;;;33.10;15.35;;;;;;;9.93;76.75;102239.72;5013145;28;20049;-74
2021/05/31 01:11:48;;;;;;;37.15;19.08;;;;;;;9.91;76.91;102246.44;5013338;28;20029;-72
2021/05/31 01:14:22;;;;;;;30.30;15.65;;;;;;;9.85;76.75;102245.06;5014580;28;20026;-73
2021/05/31 01:17:02;;;;;;;31.35;14.80;;;;;;;9.86;77.28;102242.59;5013176;28;20501;-73
2021/05/31 01:19:50;;;;;;;36.15;16.95;;;;;;;9.64;78.42;102246.09;5012712;28;20029;-73
2021/05/31 01:22:17;;;;;;;33.95;16.83;;;;;;;9.66;78.07;102233.34;5014376;28;20482;-73
2021/05/31 01:25:00;;;;;;;33.03;17.15;;;;;;;9.60;78.20;102244.03;5012987;28;20402;-73
2021/05/31 01:27:36;;;;;;;33.60;14.90;;;;;;;9.65;77.84;102242.72;5012735;28;20021;-73
2021/05/31 01:30:06;;;;;;;29.67;15.70;;;;;;;9.68;77.55;102241.19;5013142;28;20177;-73
2021/05/31 01:32:52;;;;;;;30.17;15.65;;;;;;;9.80;77.17;102242.13;5012681;28;20033;-74
2021/05/31 01:35:25;;;;;;;30.98;15.25;;;;;;;9.79;76.27;102240.34;5012603;28;20041;-73
2021/05/31 01:37:52;;;;;;;32.47;14.68;;;;;;;9.71;76.42;102246.56;5012659;28;20065;-74
2021/05/31 01:40:20;;;;;;;29.20;15.20;;;;;;;9.69;76.30;102243.88;5013091;28;20026;-74
2021/05/31 01:42:46;;;;;;;28.42;15.45;;;;;;;9.65;76.28;102247.88;5012575;28;20386;-73
2021/05/31 01:45:12;;;;;;;31.00;16.15;;;;;;;9.54;77.18;102243.56;4996547;28;20021;-74
2021/05/31 01:47:38;;;;;;;28.33;16.63;;;;;;;9.60;76.31;102246.63;5012403;28;20022;-73
2021/05/31 01:50:04;;;;;;;32.33;16.55;;;;;;;9.58;76.26;102243.03;5013088;28;20395;-73
2021/05/31 01:52:30;;;;;;;27.33;15.07;;;;;;;9.50;76.10;102246.66;5012302;28;20026;-73
2021/05/31 01:54:56;;;;;;;27.85;14.52;;;;;;;9.48;76.35;102243.06;5012874;28;20079;-73
2021/05/31 01:57:23;;;;;;;25.08;13.90;;;;;;;9.43;76.16;102244.38;5011382;28;20026;-74
2021/05/31 01:59:50;;;;;;;33.58;16.30;;;;;;;9.42;76.54;102237.44;5012426;28;20025;-74
2021/05/31 02:02:17;;;;;;;34.25;16.60;;;;;;;9.39;76.18;102235.50;5001702;28;20072;-74
2021/05/31 02:04:43;;;;;;;32.67;16.27;;;;;;;9.35;76.83;102239.53;5012610;28;20029;-73
2021/05/31 02:07:08;;;;;;;35.42;17.00;;;;;;;9.33;76.97;102237.59;5013023;28;20378;-73
2021/05/31 02:09:34;;;;;;;29.15;14.60;;;;;;;9.32;76.44;102236.72;5012192;28;20402;-74
2021/05/31 02:12:11;;;;;;;30.13;15.35;;;;;;;9.30;76.61;102237.34;5012461;28;20068;-73
2021/05/31 02:14:48;;;;;;;27.70;14.52;;;;;;;9.30;76.39;102232.22;5012736;28;20037;-72
2021/05/31 02:17:52;;;;;;;33.88;14.98;;;;;;;9.25;76.06;102234.44;5012035;28;20033;-72
2021/05/31 02:20:18;;;;;;;35.28;16.02;;;;;;;9.16;76.80;102233.69;5012330;28;20117;-71
2021/05/31 02:22:46;;;;;;;31.50;15.65;;;;;;;9.11;76.99;102235.00;5012362;28;20100;-74
2021/05/31 02:25:13;;;;;;;27.90;14.52;;;;;;;9.08;76.90;102234.75;5013045;28;20022;-73
2021/05/31 02:27:41;;;;;;;29.80;15.27;;;;;;;9.05;77.02;102231.16;5011875;28;20037;-74
2021/05/31 02:30:07;;;;;;;30.10;15.38;;;;;;;9.03;76.92;102225.00;5011911;28;20109;-75
2021/05/31 02:32:33;;;;;;;31.52;15.65;;;;;;;9.02;76.90;102230.91;5011772;28;20030;-71
2021/05/31 02:34:59;;;;;;;31.65;15.63;;;;;;;8.96;76.94;102230.38;5013236;28;20376;-73
2021/05/31 02:37:34;;;;;;;26.95;14.70;;;;;;;8.97;76.39;102228.72;5012570;28;20026;-73
2021/05/31 02:39:59;;;;;;;27.17;14.10;;;;;;;8.95;76.46;102223.44;5012850;28;20601;-73
2021/05/31 02:42:24;;;;;;;29.80;14.90;;;;;;;8.94;76.33;102220.78;5012224;28;20116;-74
2021/05/31 02:44:50;;;;;;;28.17;13.88;;;;;;;8.96;76.38;102230.38;5013255;28;20412;-72
2021/05/31 02:47:15;;;;;;;31.33;15.70;;;;;;;8.93;76.66;102225.00;5011739;28;20026;-71
2021/05/31 02:49:41;;;;;;;30.05;14.88;;;;;;;8.88;76.72;102222.06;5011857;28;20025;-73
2021/05/31 02:52:06;;;;;;;28.58;14.30;;;;;;;8.88;76.89;102226.28;5013143;28;20026;-74
2021/05/31 02:54:31;;;;;;;34.08;15.00;;;;;;;8.87;77.11;102219.38;5012645;28;20116;-72
2021/05/31 02:56:57;;;;;;;31.63;14.63;;;;;;;8.89;76.94;102220.38;5011925;28;20034;-71
2021/05/31 02:59:22;;;;;;;34.28;15.77;;;;;;;8.89;76.92;102222.94;5004274;28;20026;-72
2021/05/31 03:01:48;;;;;;;30.40;15.43;;;;;;;8.93;76.58;102219.84;5000583;28;20014;-72
2021/05/31 03:04:13;;;;;;;30.45;15.93;;;;;;;8.91;76.26;102223.97;5002962;28;20111;-72
2021/05/31 03:06:38;;;;;;;26.33;14.75;;;;;;;8.87;76.41;102229.63;5008898;28;20040;-72
2021/05/31 03:09:04;;;;;;;30.67;15.43;;;;;;;8.82;76.48;102220.66;5006111;28;20049;-74
2021/05/31 03:11:29;;;;;;;31.35;16.02;;;;;;;8.88;76.81;102221.16;5002389;28;20021;-73
2021/05/31 03:13:55;;;;;;;25.33;14.18;;;;;;;8.85;76.74;102220.91;5010140;28;20581;-72
2021/05/31 03:16:20;;;;;;;30.40;14.65;;;;;;;8.85;76.41;102221.81;5006407;28;20110;-72
2021/05/31 03:18:46;;;;;;;28.92;15.02;;;;;;;8.82;75.95;102218.09;5005954;28;20029;-73
2021/05/31 03:21:12;;;;;;;26.80;13.70;;;;;;;8.80;76.21;102232.47;5004638;28;20030;-73
2021/05/31 03:23:37;;;;;;;28.88;14.43;;;;;;;8.74;76.23;102228.63;5007043;28;20219;-73
2021/05/31 03:26:02;;;;;;;32.40;14.02;;;;;;;8.74;76.79;102223.50;5005000;28;20477;-73
2021/05/31 03:28:28;;;;;;;28.35;14.20;;;;;;;8.78;76.72;102224.66;5004723;28;20100;-73
2021/05/31 03:30:54;;;;;;;23.85;13.77;;;;;;;8.79;76.46;102230.69;5003926;28;20030;-73
2021/05/31 03:33:19;;;;;;;30.38;14.57;;;;;;;8.76;77.10;102229.66;5004613;28;20034;-74
2021/05/31 03:35:44;;;;;;;34.20;16.48;;;;;;;8.81;76.90;102224.00;5005480;28;20026;-72
2021/05/31 03:38:10;;;;;;;30.98;15.57;;;;;;;8.80;77.23;102227.34;5006407;28;20084;-73
2021/05/31 03:40:35;;;;;;;33.70;15.15;;;;;;;8.87;77.37;102229.63;4992017;28;20364;-72
2021/05/31 03:43:01;;;;;;;32.33;15.07;;;;;;;8.97;77.12;102232.19;5009130;28;20022;-73
2021/05/31 03:45:26;;;;;;;29.42;14.98;;;;;;;9.00;76.95;102229.84;4992310;28;20160;-73
2021/05/31 03:47:52;;;;;;;26.98;13.63;;;;;;;8.96;76.61;102230.38;5002401;28;20034;-74
2021/05/31 03:50:17;;;;;;;29.35;14.15;;;;;;;8.99;76.98;102228.06;5003830;28;20050;-74
2021/05/31 03:52:43;;;;;;;28.70;14.75;;;;;;;9.05;76.77;102225.09;5011301;28;20052;-74
2021/05/31 03:55:09;;;;;;;27.33;14.18;;;;;;;9.08;76.35;102232.19;5005218;28;20382;-73
2021/05/31 03:57:36;;;;;;;28.08;13.43;;;;;;;9.11;76.51;102229.84;5007682;28;20034;-73
2021/05/31 04:00:08;;;;;;;28.70;14.88;;;;;;;9.22;76.13;102234.19;5006814;28;20032;-74
2021/05/31 04:02:34;;;;;;;26.70;14.77;;;;;;;9.22;76.38;102229.03;5005547;28;20036;-74
2021/05/31 04:04:59;;;;;;;28.65;14.38;;;;;;;9.29;75.71;102228.75;5006895;28;20054;-74
2021/05/31 04:12:55;;;;;;;29.10;14.38;;;;;;;9.45;75.80;102230.84;5012013;28;20044;-73
2021/05/31 04:15:20;;;;;;;28.27;14.82;;;;;;;9.54;75.71;102216.91;5028902;28;20463;-73
2021/05/31 04:17:46;;;;;;;29.23;14.95;;;;;;;9.64;75.62;102230.66;5027574;28;20026;-73
2021/05/31 04:20:13;;;;;;;28.92;14.45;;;;;;;9.73;75.45;102219.28;5026389;28;20080;-75
2021/05/31 04:22:39;;;;;;;29.25;16.25;;;;;;;9.79;75.88;102224.91;5011564;28;20033;-73
2021/05/31 04:25:05;;;;;;;29.95;15.88;;;;;;;9.82;76.16;102219.09;5007685;28;20101;-74
2021/05/31 04:27:31;;;;;;;37.08;17.35;;;;;;;9.81;76.55;102213.03;5006161;28;20022;-74
2021/05/31 04:29:56;;;;;;;33.45;16.20;;;;;;;9.79;76.97;102217.19;5027392;28;20106;-73
2021/05/31 04:32:22;;;;;;;33.83;17.30;;;;;;;9.86;77.26;102211.72;5009005;28;20018;-73
2021/05/31 04:34:47;;;;;;;32.83;16.90;;;;;;;10.05;76.88;102218.28;5009636;28;20036;-74
2021/05/31 04:37:13;;;;;;;32.97;16.33;;;;;;;10.23;76.40;102214.56;5028328;28;20085;-73
2021/05/31 04:39:38;;;;;;;33.47;16.45;;;;;;;10.34;76.21;102212.78;5025128;28;20024;-74
2021/05/31 04:42:06;;;;;;;28.08;15.90;;;;;;;10.52;76.07;102213.31;5025165;28;20042;-74
2021/05/31 04:44:33;;;;;;;30.42;15.68;;;;;;;10.62;74.54;102214.91;5011072;28;20018;-74
2021/05/31 04:46:58;;;;;;;25.42;12.90;;;;;;;10.64;73.53;102217.56;5009697;28;20375;-74
2021/05/31 04:49:24;;;;;;;28.67;15.60;;;;;;;10.63;74.32;102218.34;5011238;28;20029;-73
2021/05/31 04:51:50;;;;;;;25.52;14.05;;;;;;;10.64;73.67;102217.56;4991547;28;20028;-74
2021/05/31 04:54:16;;;;;;;19.55;10.95;;;;;;;10.57;71.37;102215.31;5009059;28;20022;-73
2021/05/31 04:56:41;;;;;;;21.13;11.63;;;;;;;10.62;71.79;102214.00;5024287;28;20091;-74
2021/05/31 04:59:07;;;;;;;22.58;11.82;;;;;;;10.48;72.02;102216.44;5007842;28;20043;-74
2021/05/31 05:01:34;;;;;;;21.02;11.20;;;;;;;10.40;71.22;102212.38;5008130;28;20064;-74
2021/05/31 05:04:00;;;;;;;22.20;11.40;;;;;;;10.44;71.78;102204.09;5026908;28;20028;-73
2021/05/31 05:06:26;;;;;;;15.93;9.23;;;;;;;10.46;70.92;102207.69;5024726;28;20030;-74
2021/05/31 05:08:53;;;;;;;21.85;11.40;;;;;;;10.34;71.47;102206.75;5007822;28;20044;-74
2021/05/31 05:11:20;;;;;;;17.50;9.30;;;;;;;10.46;70.16;102212.84;5004663;28;20041;-74
2021/05/31 05:13:46;;;;;;;19.05;8.80;;;;;;;10.68;68.50;102219.59;5011744;28;20029;-74
2021/05/31 05:16:12;;;;;;;17.63;8.30;;;;;;;10.66;68.51;102221.16;5002269;28;20559;-74
2021/05/31 05:18:44;;;;;;;12.32;6.40;;;;;;;10.70;65.45;102218.03;5007027;28;20425;-75
2021/05/31 05:21:10;;;;;;;15.68;7.78;;;;;;;10.77;65.68;102220.28;5011500;28;20048;-73
2021/05/31 05:23:36;;;;;;;13.80;7.30;;;;;;;10.78;64.14;102216.91;5027820;28;20028;-74
2021/05/31 05:26:02;;;;;;;13.15;6.85;;;;;;;10.87;65.69;102215.78;4999505;28;20036;-73
2021/05/31 05:28:27;;;;;;;14.77;7.30;;;;;;;11.02;65.41;102211.75;5002146;28;20458;-74
2021/05/31 05:30:53;;;;;;;16.75;7.38;;;;;;;11.11;63.83;102209.81;5030916;28;20057;-75
2021/05/31 05:33:19;;;;;;;15.90;7.95;;;;;;;11.18;63.86;102210.31;5032796;28;20029;-73
2021/05/31 05:35:53;;;;;;;11.23;6.63;;;;;;;11.23;63.92;102219.25;5011479;28;20025;-74
2021/05/31 05:48:52;;;;;;;13.00;7.28;;;;;;;11.45;61.57;102202.72;5009736;28;20088;-73
2021/05/31 05:51:18;;;;;;;19.45;7.65;;;;;;;11.46;62.79;102209.69;4995835;28;20049;-73
2021/05/31 05:53:46;;;;;;;15.85;6.80;;;;;;;11.80;60.71;102212.94;4995827;28;20057;-73
2021/05/31 05:56:17;;;;;;;13.50;7.43;;;;;;;11.79;60.52;102212.81;4996281;28;20049;-74
2021/05/31 05:58:44;;;;;;;11.98;6.90;;;;;;;11.88;60.37;102216.03;4979688;28;20030;-73
2021/05/31 06:01:10;;;;;;;13.68;6.03;;;;;;;12.05;59.71;102203.41;4995863;28;20036;-74
2021/05/31 06:03:38;;;;;;;11.55;6.53;;;;;;;12.31;58.63;102204.31;4996008;28;20022;-74
2021/05/31 06:06:04;;;;;;;11.10;5.53;;;;;;;12.40;58.42;102207.50;4996018;28;20104;-73
2021/05/31 06:08:30;;;;;;;8.88;4.88;;;;;;;12.57;57.71;102212.09;4992272;28;20130;-74
2021/05/31 06:10:57;;;;;;;8.65;4.50;;;;;;;12.67;53.82;102211.00;4992849;28;20076;-73
2021/05/31 06:13:24;;;;;;;9.70;4.63;;;;;;;12.94;53.88;102212.72;4993879;28;20034;-73
2021/05/31 06:15:50;;;;;;;6.70;3.67;;;;;;;13.01;54.11;102209.72;4992312;28;20046;-72
2021/05/31 06:18:16;;;;;;;6.05;3.40;;;;;;;13.11;52.06;102212.09;4992491;28;20388;-74
2021/05/31 06:20:41;;;;;;;8.18;3.47;;;;;;;13.09;51.49;102213.69;4992549;28;20026;-74
2021/05/31 06:23:11;;;;;;;5.68;3.40;;;;;;;13.20;52.62;102210.91;4976373;28;20173;-73
2021/05/31 06:25:37;;;;;;;6.65;3.50;;;;;;;13.31;49.94;102204.75;4992521;28;20026;-73
2021/05/31 06:28:06;;;;;;;5.18;3.50;;;;;;;13.49;50.67;102210.19;4992469;28;20030;-73
2021/05/31 06:30:32;;;;;;;4.57;2.88;;;;;;;13.70;49.71;102210.63;4992612;28;20472;-72
2021/05/31 06:32:58;;;;;;;5.82;2.70;;;;;;;13.82;48.37;102204.41;4976064;28;20038;-72
2021/05/31 06:35:25;;;;;;;5.95;3.38;;;;;;;13.86;47.89;102207.28;4990315;28;20037;-73
2021/05/31 06:37:51;;;;;;;5.70;2.80;;;;;;;14.03;47.85;102200.53;4993079;28;20489;-74
2021/05/31 06:40:18;;;;;;;6.45;2.42;;;;;;;14.17;45.97;102200.44;4992257;28;20033;-74
2021/05/31 06:42:46;;;;;;;6.93;2.63;;;;;;;14.15;46.63;102199.47;4992057;28;20073;-73
2021/05/31 06:48:34;;;;;;;4.30;2.20;;;;;;;14.54;46.88;102205.22;4982154;28;20034;-73
2021/05/31 06:51:00;;;;;;;6.35;2.15;;;;;;;14.76;45.65;102209.06;4990973;28;20026;-73
2021/05/31 06:53:26;;;;;;;4.43;1.88;;;;;;;14.70;45.04;102207.00;4992150;28;20038;-72
2021/05/31 06:55:52;;;;;;;5.50;2.10;;;;;;;14.98;44.37;102205.09;4990920;28;20027;-72
2021/05/31 06:58:17;;;;;;;5.38;2.10;;;;;;;15.21;44.17;102201.19;4990900;28;20061;-72
2021/05/31 07:00:44;;;;;;;3.78;1.67;;;;;;;15.23;43.86;102212.56;4983763;28;20037;-73
2021/05/31 07:03:10;;;;;;;5.97;2.10;;;;;;;15.43;45.14;102203.28;4978373;28;20022;-73
2021/05/31 07:05:35;;;;;;;3.88;1.55;;;;;;;15.68;42.59;102199.38;4980629;28;21051;-71
2021/05/31 07:08:01;;;;;;;4.57;1.80;;;;;;;15.69;41.19;102216.75;4971846;28;20036;-73
2021/05/31 07:10:28;;;;;;;2.75;1.60;;;;;;;15.88;41.44;102202.16;5002464;28;20025;-74
2021/05/31 07:12:55;;;;;;;3.60;1.60;;;;;;;15.88;41.43;102207.38;5006279;28;20096;-73
2021/05/31 07:15:21;;;;;;;2.90;1.83;;;;;;;15.90;39.11;102211.84;5011870;28;20033;-73
2021/05/31 07:17:47;;;;;;;4.63;1.63;;;;;;;15.99;42.03;102211.41;5010712;28;20157;-78
2021/05/31 07:20:15;;;;;;;3.00;1.60;;;;;;;16.22;39.13;102209.09;5011800;28;20511;-77
2021/05/31 07:22:43;;;;;;;5.43;1.50;;;;;;;16.17;38.43;102200.19;5010618;28;20049;-75
2021/05/31 07:25:10;;;;;;;4.13;1.48;;;;;;;16.36;37.96;102202.88;5010360;28;20030;-77
2021/05/31 07:27:36;;;;;;;5.88;1.70;;;;;;;16.49;39.64;102204.41;5011814;28;20022;-76
2021/05/31 07:30:05;;;;;;;5.25;1.48;;;;;;;16.31;39.05;102203.50;5010527;28;20033;-74
2021/05/31 07:32:31;;;;;;;5.30;1.30;;;;;;;16.51;41.00;102196.69;5011704;28;20079;-75
2021/05/31 07:34:56;;;;;;;11.07;1.70;;;;;;;16.50;39.45;102200.13;5010265;28;20034;-72
2021/05/31 07:37:22;;;;;;;3.17;1.52;;;;;;;16.76;37.70;102192.69;5010690;28;20174;-74
2021/05/31 07:39:47;;;;;;;5.70;1.50;;;;;;;16.80;38.15;102194.63;4993083;28;20065;-75
2021/05/31 07:42:13;;;;;;;5.07;1.80;;;;;;;17.21;41.07;102187.91;5011130;28;20049;-78
2021/05/31 07:44:39;;;;;;;7.10;1.98;;;;;;;17.52;43.32;102184.13;5006631;28;20030;-71
2021/05/31 07:47:04;;;;;;;3.72;1.70;;;;;;;17.58;40.99;102183.50;5006636;28;20021;-74
2021/05/31 07:49:29;;;;;;;5.57;1.73;;;;;;;17.35;40.32;102185.06;4990961;28;20041;-74
2021/05/31 07:51:55;;;;;;;3.78;1.40;;;;;;;17.19;39.23;102179.13;5001593;28;20029;-73
2021/05/31 07:54:24;;;;;;;2.85;1.80;;;;;;;17.34;43.28;102180.66;5010354;28;20072;-73
2021/05/31 07:56:50;;;;;;;3.67;1.87;;;;;;;17.80;41.70;102174.94;5012205;28;20026;-72
2021/05/31 07:59:17;;;;;;;2.83;1.33;;;;;;;18.14;40.26;102180.75;5012646;28;20026;-73
2021/05/31 08:01:42;;;;;;;3.78;1.60;;;;;;;18.21;39.87;102181.88;5014340;28;20022;-74
2021/05/31 08:04:08;;;;;;;5.70;1.52;;;;;;;18.04;41.12;102176.84;5014720;28;20033;-72
2021/05/31 08:06:34;;;;;;;3.25;1.23;;;;;;;18.54;39.25;102176.28;5015838;28;20435;-72
2021/05/31 08:09:00;;;;;;;3.67;1.60;;;;;;;18.37;37.73;102171.25;5014505;28;20057;-71
2021/05/31 08:11:25;;;;;;;2.63;1.40;;;;;;;18.47;38.70;102174.25;5014552;28;20472;-71
2021/05/31 08:13:51;;;;;;;3.38;1.23;;;;;;;18.72;38.29;102170.06;5004809;28;20030;-72
2021/05/31 08:16:18;;;;;;;4.75;1.10;;;;;;;19.01;38.90;102172.94;5000158;28;20038;-72
2021/05/31 08:18:44;;;;;;;3.47;1.80;;;;;;;19.15;37.70;102176.97;4994313;28;20044;-72
2021/05/31 08:22:38;;;;;;;2.22;1.50;;;;;;;19.29;35.67;102168.78;5070380;28;20390;-69
2021/05/31 08:25:05;;;;;;;3.85;1.67;;;;;;;19.38;37.01;102174.34;5068945;28;20036;-69
2021/05/31 08:27:30;;;;;;;4.30;1.27;;;;;;;19.55;36.58;102168.00;5068795;28;20047;-70
2021/05/31 08:29:56;;;;;;;12.05;1.73;;;;;;;19.27;34.84;102172.22;5069010;28;20021;-69
2021/05/31 08:32:21;;;;;;;6.18;1.60;;;;;;;19.33;35.82;102176.78;5068823;28;20442;-70
2021/05/31 08:34:47;;;;;;;3.05;1.35;;;;;;;19.80;35.76;102179.38;5070023;28;20046;-70
2021/05/31 08:37:13;;;;;;;3.25;1.52;;;;;;;19.81;34.98;102169.78;5069504;28;20027;-69
2021/05/31 08:39:38;;;;;;;4.22;1.30;;;;;;;19.97;31.16;102166.03;5069827;28;20492;-69
2021/05/31 08:42:04;;;;;;;2.72;1.27;;;;;;;20.16;31.80;102161.41;5060931;28;20040;-70
2021/05/31 08:44:31;;;;;;;6.60;1.67;;;;;;;20.75;31.69;102168.56;5057899;28;20040;-71
2021/05/31 08:47:01;;;;;;;2.83;1.40;;;;;;;20.89;32.87;102161.16;5068616;28;20029;-70
2021/05/31 08:50:22;;;;;;;5.50;1.60;;;;;;;21.01;33.92;102162.44;5060521;28;20025;-70
2021/05/31 08:52:50;;;;;;;5.38;1.65;;;;;;;20.88;34.00;102165.53;5064152;28;20028;-69
2021/05/31 08:55:18;;;;;;;4.25;1.50;;;;;;;21.24;33.24;102154.34;5050232;28;20032;-69
2021/05/31 08:57:46;;;;;;;8.20;1.67;;;;;;;21.64;31.93;102153.72;5067829;28;20111;-70
2021/05/31 09:00:15;;;;;;;2.75;1.50;;;;;;;21.86;30.13;102150.88;5066757;28;20322;-70
2021/05/31 09:02:41;;;;;;;5.57;1.48;;;;;;;21.88;30.08;102143.94;5067096;28;20031;-73
2021/05/31 09:05:08;;;;;;;5.03;1.35;;;;;;;20.98;31.89;102151.88;5050448;28;20537;-70
2021/05/31 09:07:34;;;;;;;4.47;1.80;;;;;;;20.71;30.76;102144.91;5066827;28;20041;-70
2021/05/31 09:10:00;;;;;;;6.03;2.00;;;;;;;20.56;30.88;102149.63;5066880;28;20096;-70
2021/05/31 09:12:32;;;;;;;9.82;2.63;;;;;;;20.91;30.82;102144.66;5050347;28;20082;-71
2021/05/31 09:15:01;;;;;;;4.60;1.70;;;;;;;20.99;31.90;102143.16;5066931;28;20531;-71
2021/05/31 09:17:29;;;;;;;6.97;1.67;;;;;;;21.57;32.55;102143.03;5067797;28;20025;-71
2021/05/31 09:19:54;;;;;;;5.30;1.70;;;;;;;21.95;29.33;102134.47;5066382;28;20036;-70
2021/05/31 09:22:21;;;;;;;4.10;1.45;;;;;;;22.49;29.67;102141.91;5065961;28;20040;-71
2021/05/31 09:25:00;;;;;;;10.18;3.13;;;;;;;23.47;27.42;102137.94;5061480;28;20492;-71
2021/05/31 09:27:27;;;;;;;4.72;1.60;;;;;;;25.54;25.80;102143.72;5055426;28;20108;-70
2021/05/31 09:29:57;;;;;;;3.08;1.45;;;;;;;29.26;21.20;102138.69;5045386;28;20017;-71
2021/05/31 09:32:22;;;;;;;3.83;1.20;;;;;;;28.12;18.97;102146.03;5041371;28;20121;-71
2021/05/31 09:35:08;;;;;;;116.57;32.33;;;;;;;32.10;17.03;102137.38;5032865;28;20120;-71
2021/05/31 09:37:44;;;;;;;31.17;9.27;;;;;;;29.56;18.68;102138.56;5032353;28;20057;-71
2021/05/31 09:40:11;;;;;;;5.22;2.42;;;;;;;30.16;18.78;102131.88;5039073;28;20047;-70
2021/05/31 09:42:47;;;;;;;3.90;1.77;;;;;;;31.87;17.59;102129.78;5052610;28;20052;-70
2021/05/31 09:45:13;;;;;;;9.57;2.50;;;;;;;33.91;15.53;102129.97;5053008;28;20024;-70
2021/05/31 09:47:38;;;;;;;8.75;2.60;;;;;;;31.26;17.38;102129.78;5053992;28;20107;-70
2021/05/31 09:50:05;;;;;;;37.65;13.15;;;;;;;28.77;19.46;102123.88;5052290;28;20463;-71
2021/05/31 09:52:30;;;;;;;7.05;2.80;;;;;;;32.62;17.39;102126.66;5053941;28;20104;-70
2021/05/31 09:54:56;;;;;;;13.15;3.40;;;;;;;29.81;18.80;102125.09;5052538;28;20111;-70
2021/05/31 09:57:30;;;;;;;9.35;3.40;;;;;;;30.40;18.36;102132.56;5053682;28;20031;-71
2021/05/31 09:59:59;;;;;;;6.95;2.17;;;;;;;31.89;17.18;102123.53;5051497;28;20075;-70
2021/05/31 10:08:00;;;;;;;29.45;10.40;;;;;;;30.65;20.23;102119.03;5052366;28;20035;-71
2021/05/31 10:10:26;;;;;;;13.60;4.80;;;;;;;31.17;20.52;102107.72;5052045;28;20167;-70
2021/05/31 10:12:52;;;;;;;15.93;5.22;;;;;;;30.43;19.78;102113.94;5035689;28;20108;-71
2021/05/31 10:15:20;;;;;;;7.63;2.47;;;;;;;32.17;18.21;102111.47;5035445;28;20025;-71
2021/05/31 10:17:50;;;;;;;21.23;6.00;;;;;;;30.16;20.70;102100.00;5052428;28;20042;-73
2021/05/31 10:20:16;;;;;;;5.13;2.40;;;;;;;30.81;19.61;102107.31;5051968;28;20389;-71
2021/05/31 10:22:41;;;;;;;3.67;2.03;;;;;;;27.97;23.94;102093.94;5052194;28;20028;-71
2021/05/31 10:25:08;;;;;;;5.57;1.95;;;;;;;28.35;23.56;102096.59;5051781;28;20440;-74
2021/05/31 10:27:35;;;;;;;9.13;2.67;;;;;;;24.92;26.67;102085.00;5051457;28;20033;-72
2021/05/31 10:30:02;;;;;;;6.90;2.03;;;;;;;26.41;25.73;102086.41;5052931;28;20025;-72
2021/05/31 10:32:28;;;;;;;5.88;2.30;;;;;;;23.53;30.39;102089.81;5050606;28;20013;-73
2021/05/31 10:34:54;;;;;;;2.78;1.80;;;;;;;24.67;30.30;102089.03;5050886;28;20039;-73
2021/05/31 10:37:30;;;;;;;32.92;3.53;;;;;;;26.46;26.69;102084.69;5050633;28;20541;-72
2021/05/31 10:39:59;;;;;;;6.97;2.25;;;;;;;24.48;27.80;102088.78;5050469;28;20025;-74
2021/05/31 10:42:25;;;;;;;;;;;;;;;23.52;29.84;102093.31;5052246;28;20021;-74
2021/05/31 10:44:50;;;;;;;3.70;2.10;;;;;;;23.61;30.14;102087.34;5049334;28;20015;-74
2021/05/31 10:47:27;;;;;;;5.75;2.10;;;;;;;25.99;27.71;102087.88;5051648;28;20226;-71
2021/05/31 10:49:56;;;;;;;9.40;2.42;;;;;;;25.78;26.33;102084.16;5051774;28;20477;-71
2021/05/31 10:52:22;;;;;;;4.55;2.15;;;;;;;26.27;25.93;102077.53;5051176;28;20017;-73
2021/05/31 10:54:48;;;;;;;4.05;2.08;;;;;;;25.59;27.79;102078.72;5030566;28;20527;-75
2021/05/31 10:57:13;;;;;;;4.97;1.77;;;;;;;27.18;26.10;102075.31;5039965;28;20021;-75
2021/05/31 10:59:52;;;;;;;3.90;2.15;;;;;;;26.97;26.21;102070.84;5039860;28;20044;-75
2021/05/31 11:02:26;;;;;;;4.72;2.33;;;;;;;24.29;28.72;102067.41;5041698;28;20029;-75
2021/05/31 11:04:51;;;;;;;4.60;2.40;;;;;;;22.39;33.10;102078.69;5033207;28;20033;-75
2021/05/31 11:07:27;;;;;;;4.25;2.17;;;;;;;23.60;31.47;102075.94;5038051;28;20068;-74
2021/05/31 11:09:54;;;;;;;4.05;2.00;;;;;;;23.89;31.41;102062.41;5052231;28;20024;-75
2021/05/31 11:12:31;;;;;;;4.72;2.05;;;;;;;23.13;31.03;102066.25;5052664;28;20020;-74
2021/05/31 11:15:08;;;;;;;3.95;2.00;;;;;;;22.88;31.72;102067.53;5049430;28;20116;-77
2021/05/31 11:17:49;;;;;;;4.38;2.35;;;;;;;23.42;34.21;102070.34;5050056;28;20428;-78
2021/05/31 11:20:15;;;;;;;7.78;2.10;;;;;;;23.79;32.59;102065.72;5036478;28;20020;-77
2021/05/31 11:22:52;;;;;;;5.03;2.20;;;;;;;24.65;30.74;102060.03;5048366;28;20025;-79
2021/05/31 11:25:19;;;;;;;6.53;2.50;;;;;;;24.24;32.11;102057.69;5033154;28;20167;-78
2021/05/31 11:27:51;;;;;;;3.92;2.63;;;;;;;22.50;31.61;102070.19;5031648;28;20061;-77
2021/05/31 11:30:19;;;;;;;5.47;3.00;;;;;;;22.34;33.03;102059.31;5039711;28;20549;-78
2021/05/31 11:32:45;;;;;;;7.32;2.47;;;;;;;22.61;33.71;102059.09;5052598;28;20029;-78
2021/05/31 11:35:13;;;;;;;5.03;2.95;;;;;;;22.01;35.44;102065.53;5052974;28;20044;-79
2021/05/31 11:37:38;;;;;;;4.60;2.50;;;;;;;21.92;34.42;102063.56;5019012;28;20023;-79
2021/05/31 11:40:13;;;;;;;4.57;2.28;;;;;;;21.63;36.00;102057.53;5050013;28;20111;-77
2021/05/31 11:42:43;;;;;;;9.48;3.00;;;;;;;22.06;36.50;102053.41;5051912;28;20036;-83
2021/05/31 11:45:10;;;;;;;4.93;2.42;;;;;;;21.58;36.15;102054.81;5044040;28;20517;-74
2021/05/31 11:47:35;;;;;;;6.45;2.50;;;;;;;21.77;35.72;102045.72;5040396;28;20120;-71